Terminal Aerodrome Forecast
Issued by NWS Newport/Morehead City, NC

Home | Current Version | Previous Version | Text Only | Print | Product List | Glossary Off
Versions: 1 2 3 4 5 6 7 8 9 10 11 12 13 14

000
FTUS42 KMHX 241700
TAFEWN
TAF
KEWN 241737Z 2418/2518 04015G22KT P6SM SCT045
     FM250000 03007KT P6SM SCT250
     FM251500 04012G20KT P6SM SCT050=

USA.gov is the U.S. government's official web portal to all federal, state and local government web resources and services.